Ely, MN (55731)

7:10 AM CST on January 17, 2017 (GMT -0600)
Spaulding | | Change Station

Elev 1345 ft 47.92 °N, 91.83 °W | Updated 30 seconds ago

Overcast
Overcast
-1.5 °F
Feels Like -1 °F
N
0.0
Wind Variable Wind from West

Today
High -- | Low -- °F
--% Chance of Precip.
Yesterday
High -- | Low -- °F
Precip. -- in
Pressure 29.93 in
Visibility 0.5 miles
Clouds Mostly Cloudy 100 ft
Overcast 900 ft
Windchill -1 °F
Dew Point -4 °F
Humidity 87%
Rainfall 0.00 in
Snow Depth Not available.
7:50 AM 4:45 PM
Waning Gibbous, 72% visible
METAR KELO 171253Z AUTO 00000KT 1/2SM FZFG BKN001 OVC009 M20/M22 A2993 RMK AO2
Pressure 29.93 in
Visibility 0.5 miles
Clouds Mostly Cloudy 100 ft
Overcast 900 ft
Windchill -1 °F
Dew Point -4 °F
Humidity 87%
Rainfall 0.00 in
Snow Depth Not available.
7:50 AM 4:45 PM
Waning Gibbous, 72% visible
METAR KELO 171253Z AUTO 00000KT 1/2SM FZFG BKN001 OVC009 M20/M22 A2993 RMK AO2

Get Your Daily Forecast Email!

Thanks for signing up!

Be on the lookout for a verification email in your inbox.

You'll start receiving the daily forecast at 8 AM.

×

10-Day Weather Forecast

Almanac

Astronomy

Jan. 17, 2017 Rise Set
Actual Time
Civil Twilight
Nautical Twilight
Astronomical Twilight
Moon
Length of Visible Light
Length of Day
Tomorrow will be .
, % of the Moon is Illuminated

Today's Extremes

State Highs State Lows

Community

WunderPhotos

Upload Photos

1,962,540 photos uploaded!

WunderBlog® & News

Nearby

Air Quality

  Air Quality AQ Index Pollutant
Not available.

Snow Depth

Station Depth Elevation

Earthquake Activity

City Distance Mag. Time & Date
Minimum magnitude displayed is 2.5.

Coastal Water Temperatures

Place Temperature

Stations

Nearby Weather Stations

Station Location Temp. Windchill Dew Point Humidity Wind Precip. Elev Updated Type
                   

Watches & Warnings

There are currently no watches in effect.